<?xml version="1.0" encoding="UTF-8" standalone="no" ?>
<gpx xmlns="http://www.topografix.com/GPX/1/1" xmlns:xsi="http://www.w3.org/2001/XMLSchema-instance" xsi:schemaLocation="http://www.topografix.com/GPX/1/1 http://www.topografix.com/GPX/1/1/gpx.xsd" version="1.1" creator="VisuGPX - https://www.visugpx.com">
  <metadata>
    <name>VTT - n°7 Balcons d'Orbey 37-1017 </name>
  </metadata>
  <trk>
    <name><![CDATA[3558592-Circuit VTT n°7 Kaysersberg - Les balcons d' Orbey]]></name>
    <trkseg>
      <trkpt lat="48.12612" lon="7.16484">
        <ele>472</ele>
        <time>2019-04-12T10:53:56Z</time>
      </trkpt>
      <trkpt lat="48.12619" lon="7.16309">
        <ele>481</ele>
        <time>2019-04-12T10:54:56Z</time>
      </trkpt>
      <trkpt lat="48.12633" lon="7.16136">
        <ele>487</ele>
        <time>2019-04-12T10:55:56Z</time>
      </trkpt>
      <trkpt lat="48.1262" lon="7.16023">
        <ele>492</ele>
        <time>2019-04-12T10:56:56Z</time>
      </trkpt>
      <trkpt lat="48.12614" lon="7.15888">
        <ele>494</ele>
        <time>2019-04-12T10:57:56Z</time>
      </trkpt>
      <trkpt lat="48.12666" lon="7.1588">
        <ele>490</ele>
        <time>2019-04-12T10:58:56Z</time>
      </trkpt>
      <trkpt lat="48.12647" lon="7.15797">
        <ele>496</ele>
        <time>2019-04-12T10:59:56Z</time>
      </trkpt>
      <trkpt lat="48.12618" lon="7.1564">
        <ele>501</ele>
        <time>2019-04-12T11:00:56Z</time>
      </trkpt>
      <trkpt lat="48.12602" lon="7.15625">
        <ele>499</ele>
        <time>2019-04-12T11:01:56Z</time>
      </trkpt>
      <trkpt lat="48.12606" lon="7.15491">
        <ele>505</ele>
        <time>2019-04-12T11:02:56Z</time>
      </trkpt>
      <trkpt lat="48.12606" lon="7.1544">
        <ele>507</ele>
        <time>2019-04-12T11:03:56Z</time>
      </trkpt>
      <trkpt lat="48.1263" lon="7.15395">
        <ele>509</ele>
        <time>2019-04-12T11:04:56Z</time>
      </trkpt>
      <trkpt lat="48.12695" lon="7.15297">
        <ele>516</ele>
        <time>2019-04-12T11:05:56Z</time>
      </trkpt>
      <trkpt lat="48.12698" lon="7.15284">
        <ele>517</ele>
        <time>2019-04-12T11:06:56Z</time>
      </trkpt>
      <trkpt lat="48.12712" lon="7.15154">
        <ele>522</ele>
        <time>2019-04-12T11:07:56Z</time>
      </trkpt>
      <trkpt lat="48.12741" lon="7.15106">
        <ele>524</ele>
        <time>2019-04-12T11:08:56Z</time>
      </trkpt>
      <trkpt lat="48.12759" lon="7.1505">
        <ele>527</ele>
        <time>2019-04-12T11:09:56Z</time>
      </trkpt>
      <trkpt lat="48.12774" lon="7.15021">
        <ele>529</ele>
        <time>2019-04-12T11:10:56Z</time>
      </trkpt>
      <trkpt lat="48.12806" lon="7.15001">
        <ele>530</ele>
        <time>2019-04-12T11:11:56Z</time>
      </trkpt>
      <trkpt lat="48.12819" lon="7.14965">
        <ele>531</ele>
        <time>2019-04-12T11:12:56Z</time>
      </trkpt>
      <trkpt lat="48.12869" lon="7.14882">
        <ele>540</ele>
        <time>2019-04-12T11:13:56Z</time>
      </trkpt>
      <trkpt lat="48.12965" lon="7.148">
        <ele>562</ele>
        <time>2019-04-12T11:14:56Z</time>
      </trkpt>
      <trkpt lat="48.13038" lon="7.14733">
        <ele>568</ele>
        <time>2019-04-12T11:15:56Z</time>
      </trkpt>
      <trkpt lat="48.13223" lon="7.14619">
        <ele>568</ele>
        <time>2019-04-12T11:16:56Z</time>
      </trkpt>
      <trkpt lat="48.13299" lon="7.14578">
        <ele>573</ele>
        <time>2019-04-12T11:17:56Z</time>
      </trkpt>
      <trkpt lat="48.13334" lon="7.14545">
        <ele>577</ele>
        <time>2019-04-12T11:18:56Z</time>
      </trkpt>
      <trkpt lat="48.13376" lon="7.14501">
        <ele>583</ele>
        <time>2019-04-12T11:19:56Z</time>
      </trkpt>
      <trkpt lat="48.13371" lon="7.14508">
        <ele>582</ele>
        <time>2019-04-12T11:20:56Z</time>
      </trkpt>
      <trkpt lat="48.13359" lon="7.14476">
        <ele>586</ele>
        <time>2019-04-12T11:21:56Z</time>
      </trkpt>
      <trkpt lat="48.13287" lon="7.14419">
        <ele>590</ele>
        <time>2019-04-12T11:22:56Z</time>
      </trkpt>
      <trkpt lat="48.1321" lon="7.14365">
        <ele>588</ele>
        <time>2019-04-12T11:23:56Z</time>
      </trkpt>
      <trkpt lat="48.13124" lon="7.1433">
        <ele>586</ele>
        <time>2019-04-12T11:24:56Z</time>
      </trkpt>
      <trkpt lat="48.13038" lon="7.14285">
        <ele>596</ele>
        <time>2019-04-12T11:25:56Z</time>
      </trkpt>
      <trkpt lat="48.12983" lon="7.14253">
        <ele>601</ele>
        <time>2019-04-12T11:26:56Z</time>
      </trkpt>
      <trkpt lat="48.12923" lon="7.14187">
        <ele>609</ele>
        <time>2019-04-12T11:27:56Z</time>
      </trkpt>
      <trkpt lat="48.12863" lon="7.14152">
        <ele>616</ele>
        <time>2019-04-12T11:28:56Z</time>
      </trkpt>
      <trkpt lat="48.12795" lon="7.14125">
        <ele>622</ele>
        <time>2019-04-12T11:29:56Z</time>
      </trkpt>
      <trkpt lat="48.12765" lon="7.14123">
        <ele>623</ele>
        <time>2019-04-12T11:30:56Z</time>
      </trkpt>
      <trkpt lat="48.12756" lon="7.14088">
        <ele>624</ele>
        <time>2019-04-12T11:31:56Z</time>
      </trkpt>
      <trkpt lat="48.1275" lon="7.14054">
        <ele>625</ele>
        <time>2019-04-12T11:32:56Z</time>
      </trkpt>
      <trkpt lat="48.12817" lon="7.14023">
        <ele>631</ele>
        <time>2019-04-12T11:33:56Z</time>
      </trkpt>
      <trkpt lat="48.1284" lon="7.13951">
        <ele>638</ele>
        <time>2019-04-12T11:34:56Z</time>
      </trkpt>
      <trkpt lat="48.12872" lon="7.13823">
        <ele>644</ele>
        <time>2019-04-12T11:35:56Z</time>
      </trkpt>
      <trkpt lat="48.12885" lon="7.1379">
        <ele>644</ele>
        <time>2019-04-12T11:36:56Z</time>
      </trkpt>
      <trkpt lat="48.12906" lon="7.13769">
        <ele>644</ele>
        <time>2019-04-12T11:37:56Z</time>
      </trkpt>
      <trkpt lat="48.12911" lon="7.13709">
        <ele>650</ele>
        <time>2019-04-12T11:38:56Z</time>
      </trkpt>
      <trkpt lat="48.12938" lon="7.13708">
        <ele>651</ele>
        <time>2019-04-12T11:39:56Z</time>
      </trkpt>
      <trkpt lat="48.12986" lon="7.13678">
        <ele>660</ele>
        <time>2019-04-12T11:40:56Z</time>
      </trkpt>
      <trkpt lat="48.1294" lon="7.13664">
        <ele>658</ele>
        <time>2019-04-12T11:41:56Z</time>
      </trkpt>
      <trkpt lat="48.12902" lon="7.13603">
        <ele>664</ele>
        <time>2019-04-12T11:42:56Z</time>
      </trkpt>
      <trkpt lat="48.12879" lon="7.13541">
        <ele>668</ele>
        <time>2019-04-12T11:43:56Z</time>
      </trkpt>
      <trkpt lat="48.12871" lon="7.13479">
        <ele>673</ele>
        <time>2019-04-12T11:44:56Z</time>
      </trkpt>
      <trkpt lat="48.12876" lon="7.13406">
        <ele>678</ele>
        <time>2019-04-12T11:45:56Z</time>
      </trkpt>
      <trkpt lat="48.12894" lon="7.1336">
        <ele>682</ele>
        <time>2019-04-12T11:46:56Z</time>
      </trkpt>
      <trkpt lat="48.12925" lon="7.13296">
        <ele>686</ele>
        <time>2019-04-12T11:47:56Z</time>
      </trkpt>
      <trkpt lat="48.12994" lon="7.13215">
        <ele>694</ele>
        <time>2019-04-12T11:48:56Z</time>
      </trkpt>
      <trkpt lat="48.13039" lon="7.13158">
        <ele>699</ele>
        <time>2019-04-12T11:49:56Z</time>
      </trkpt>
      <trkpt lat="48.1307" lon="7.13118">
        <ele>704</ele>
        <time>2019-04-12T11:50:56Z</time>
      </trkpt>
      <trkpt lat="48.13082" lon="7.13095">
        <ele>707</ele>
        <time>2019-04-12T11:51:56Z</time>
      </trkpt>
      <trkpt lat="48.13091" lon="7.13039">
        <ele>710</ele>
        <time>2019-04-12T11:52:56Z</time>
      </trkpt>
      <trkpt lat="48.13095" lon="7.12945">
        <ele>716</ele>
        <time>2019-04-12T11:53:56Z</time>
      </trkpt>
      <trkpt lat="48.13094" lon="7.12859">
        <ele>721</ele>
        <time>2019-04-12T11:54:56Z</time>
      </trkpt>
      <trkpt lat="48.13094" lon="7.12775">
        <ele>728</ele>
        <time>2019-04-12T11:55:56Z</time>
      </trkpt>
      <trkpt lat="48.13107" lon="7.12729">
        <ele>735</ele>
        <time>2019-04-12T11:56:56Z</time>
      </trkpt>
      <trkpt lat="48.1312" lon="7.12701">
        <ele>740</ele>
        <time>2019-04-12T11:57:56Z</time>
      </trkpt>
      <trkpt lat="48.13132" lon="7.12681">
        <ele>745</ele>
        <time>2019-04-12T11:58:56Z</time>
      </trkpt>
      <trkpt lat="48.13143" lon="7.12736">
        <ele>745</ele>
        <time>2019-04-12T11:59:56Z</time>
      </trkpt>
      <trkpt lat="48.13172" lon="7.12794">
        <ele>751</ele>
        <time>2019-04-12T12:00:56Z</time>
      </trkpt>
      <trkpt lat="48.13191" lon="7.12861">
        <ele>755</ele>
        <time>2019-04-12T12:01:56Z</time>
      </trkpt>
      <trkpt lat="48.13199" lon="7.12879">
        <ele>757</ele>
        <time>2019-04-12T12:02:56Z</time>
      </trkpt>
      <trkpt lat="48.13209" lon="7.1288">
        <ele>760</ele>
        <time>2019-04-12T12:03:56Z</time>
      </trkpt>
      <trkpt lat="48.13229" lon="7.12795">
        <ele>771</ele>
        <time>2019-04-12T12:04:56Z</time>
      </trkpt>
      <trkpt lat="48.13238" lon="7.12796">
        <ele>774</ele>
        <time>2019-04-12T12:05:56Z</time>
      </trkpt>
      <trkpt lat="48.13244" lon="7.12812">
        <ele>775</ele>
        <time>2019-04-12T12:06:56Z</time>
      </trkpt>
      <trkpt lat="48.13265" lon="7.12896">
        <ele>778</ele>
        <time>2019-04-12T12:07:56Z</time>
      </trkpt>
      <trkpt lat="48.13275" lon="7.12918">
        <ele>780</ele>
        <time>2019-04-12T12:08:56Z</time>
      </trkpt>
      <trkpt lat="48.13287" lon="7.12919">
        <ele>783</ele>
        <time>2019-04-12T12:09:56Z</time>
      </trkpt>
      <trkpt lat="48.13288" lon="7.12868">
        <ele>787</ele>
        <time>2019-04-12T12:10:56Z</time>
      </trkpt>
      <trkpt lat="48.13289" lon="7.12855">
        <ele>789</ele>
        <time>2019-04-12T12:11:56Z</time>
      </trkpt>
      <trkpt lat="48.13303" lon="7.12875">
        <ele>792</ele>
        <time>2019-04-12T12:12:56Z</time>
      </trkpt>
      <trkpt lat="48.13311" lon="7.12899">
        <ele>793</ele>
        <time>2019-04-12T12:13:56Z</time>
      </trkpt>
      <trkpt lat="48.1331" lon="7.12882">
        <ele>794</ele>
        <time>2019-04-12T12:14:56Z</time>
      </trkpt>
      <trkpt lat="48.13273" lon="7.12599">
        <ele>807</ele>
        <time>2019-04-12T12:15:56Z</time>
      </trkpt>
      <trkpt lat="48.13263" lon="7.12506">
        <ele>814</ele>
        <time>2019-04-12T12:16:56Z</time>
      </trkpt>
      <trkpt lat="48.13232" lon="7.1238">
        <ele>813</ele>
        <time>2019-04-12T12:17:56Z</time>
      </trkpt>
      <trkpt lat="48.13231" lon="7.12289">
        <ele>810</ele>
        <time>2019-04-12T12:18:56Z</time>
      </trkpt>
      <trkpt lat="48.13237" lon="7.12231">
        <ele>809</ele>
        <time>2019-04-12T12:19:56Z</time>
      </trkpt>
      <trkpt lat="48.13239" lon="7.12172">
        <ele>808</ele>
        <time>2019-04-12T12:20:56Z</time>
      </trkpt>
      <trkpt lat="48.13233" lon="7.1213">
        <ele>805</ele>
        <time>2019-04-12T12:21:56Z</time>
      </trkpt>
      <trkpt lat="48.13234" lon="7.12031">
        <ele>802</ele>
        <time>2019-04-12T12:22:56Z</time>
      </trkpt>
      <trkpt lat="48.13246" lon="7.11991">
        <ele>806</ele>
        <time>2019-04-12T12:23:56Z</time>
      </trkpt>
      <trkpt lat="48.13263" lon="7.11944">
        <ele>813</ele>
        <time>2019-04-12T12:24:56Z</time>
      </trkpt>
      <trkpt lat="48.13248" lon="7.11916">
        <ele>809</ele>
        <time>2019-04-12T12:25:56Z</time>
      </trkpt>
      <trkpt lat="48.13221" lon="7.11875">
        <ele>810</ele>
        <time>2019-04-12T12:26:56Z</time>
      </trkpt>
      <trkpt lat="48.13189" lon="7.11781">
        <ele>816</ele>
        <time>2019-04-12T12:27:56Z</time>
      </trkpt>
      <trkpt lat="48.1317" lon="7.117">
        <ele>821</ele>
        <time>2019-04-12T12:28:56Z</time>
      </trkpt>
      <trkpt lat="48.13171" lon="7.1169">
        <ele>824</ele>
        <time>2019-04-12T12:29:56Z</time>
      </trkpt>
      <trkpt lat="48.13168" lon="7.11513">
        <ele>841</ele>
        <time>2019-04-12T12:30:56Z</time>
      </trkpt>
      <trkpt lat="48.1317" lon="7.11404">
        <ele>849</ele>
        <time>2019-04-12T12:31:56Z</time>
      </trkpt>
      <trkpt lat="48.13169" lon="7.11362">
        <ele>851</ele>
        <time>2019-04-12T12:32:56Z</time>
      </trkpt>
      <trkpt lat="48.13151" lon="7.11281">
        <ele>849</ele>
        <time>2019-04-12T12:33:56Z</time>
      </trkpt>
      <trkpt lat="48.13154" lon="7.11167">
        <ele>856</ele>
        <time>2019-04-12T12:34:56Z</time>
      </trkpt>
      <trkpt lat="48.13138" lon="7.11134">
        <ele>854</ele>
        <time>2019-04-12T12:35:56Z</time>
      </trkpt>
      <trkpt lat="48.13087" lon="7.11058">
        <ele>851</ele>
        <time>2019-04-12T12:36:56Z</time>
      </trkpt>
      <trkpt lat="48.1306" lon="7.11014">
        <ele>854</ele>
        <time>2019-04-12T12:37:56Z</time>
      </trkpt>
      <trkpt lat="48.1304" lon="7.10987">
        <ele>856</ele>
        <time>2019-04-12T12:38:56Z</time>
      </trkpt>
      <trkpt lat="48.12995" lon="7.10964">
        <ele>856</ele>
        <time>2019-04-12T12:39:56Z</time>
      </trkpt>
      <trkpt lat="48.12976" lon="7.10937">
        <ele>862</ele>
        <time>2019-04-12T12:40:56Z</time>
      </trkpt>
      <trkpt lat="48.12943" lon="7.10875">
        <ele>879</ele>
        <time>2019-04-12T12:41:56Z</time>
      </trkpt>
      <trkpt lat="48.12916" lon="7.10844">
        <ele>889</ele>
        <time>2019-04-12T12:42:56Z</time>
      </trkpt>
      <trkpt lat="48.12845" lon="7.10835">
        <ele>891</ele>
        <time>2019-04-12T12:43:56Z</time>
      </trkpt>
      <trkpt lat="48.12794" lon="7.10822">
        <ele>892</ele>
        <time>2019-04-12T12:44:56Z</time>
      </trkpt>
      <trkpt lat="48.12747" lon="7.10775">
        <ele>902</ele>
        <time>2019-04-12T12:45:56Z</time>
      </trkpt>
      <trkpt lat="48.12706" lon="7.10694">
        <ele>915</ele>
        <time>2019-04-12T12:46:56Z</time>
      </trkpt>
      <trkpt lat="48.12674" lon="7.1058">
        <ele>930</ele>
        <time>2019-04-12T12:47:56Z</time>
      </trkpt>
      <trkpt lat="48.12656" lon="7.10538">
        <ele>931</ele>
        <time>2019-04-12T12:48:56Z</time>
      </trkpt>
      <trkpt lat="48.12636" lon="7.10499">
        <ele>932</ele>
        <time>2019-04-12T12:49:56Z</time>
      </trkpt>
      <trkpt lat="48.12633" lon="7.10481">
        <ele>934</ele>
        <time>2019-04-12T12:50:56Z</time>
      </trkpt>
      <trkpt lat="48.12632" lon="7.10464">
        <ele>935</ele>
        <time>2019-04-12T12:51:56Z</time>
      </trkpt>
      <trkpt lat="48.12631" lon="7.10464">
        <ele>935</ele>
        <time>2019-04-12T12:52:56Z</time>
      </trkpt>
      <trkpt lat="48.12708" lon="7.10543">
        <ele>936</ele>
        <time>2019-04-12T12:53:56Z</time>
      </trkpt>
      <trkpt lat="48.12766" lon="7.10578">
        <ele>939</ele>
        <time>2019-04-12T12:54:56Z</time>
      </trkpt>
      <trkpt lat="48.12813" lon="7.10579">
        <ele>945</ele>
        <time>2019-04-12T12:55:56Z</time>
      </trkpt>
      <trkpt lat="48.12839" lon="7.10567">
        <ele>950</ele>
        <time>2019-04-12T12:56:56Z</time>
      </trkpt>
      <trkpt lat="48.12896" lon="7.10518">
        <ele>962</ele>
        <time>2019-04-12T12:57:56Z</time>
      </trkpt>
      <trkpt lat="48.12943" lon="7.10515">
        <ele>963</ele>
        <time>2019-04-12T12:58:56Z</time>
      </trkpt>
      <trkpt lat="48.12981" lon="7.10492">
        <ele>964</ele>
        <time>2019-04-12T12:59:56Z</time>
      </trkpt>
      <trkpt lat="48.13004" lon="7.10459">
        <ele>970</ele>
        <time>2019-04-12T13:00:56Z</time>
      </trkpt>
      <trkpt lat="48.13018" lon="7.1042">
        <ele>978</ele>
        <time>2019-04-12T13:01:56Z</time>
      </trkpt>
      <trkpt lat="48.12974" lon="7.10375">
        <ele>986</ele>
        <time>2019-04-12T13:02:56Z</time>
      </trkpt>
      <trkpt lat="48.12986" lon="7.10338">
        <ele>994</ele>
        <time>2019-04-12T13:03:56Z</time>
      </trkpt>
      <trkpt lat="48.13012" lon="7.10293">
        <ele>1003</ele>
        <time>2019-04-12T13:04:56Z</time>
      </trkpt>
      <trkpt lat="48.1304" lon="7.10259">
        <ele>1008</ele>
        <time>2019-04-12T13:05:56Z</time>
      </trkpt>
      <trkpt lat="48.13039" lon="7.1026">
        <ele>1008</ele>
        <time>2019-04-12T13:06:56Z</time>
      </trkpt>
      <trkpt lat="48.1307" lon="7.10229">
        <ele>1013</ele>
        <time>2019-04-12T13:07:56Z</time>
      </trkpt>
      <trkpt lat="48.13" lon="7.10162">
        <ele>1024</ele>
        <time>2019-04-12T13:08:56Z</time>
      </trkpt>
      <trkpt lat="48.12977" lon="7.10157">
        <ele>1027</ele>
        <time>2019-04-12T13:09:56Z</time>
      </trkpt>
      <trkpt lat="48.12864" lon="7.10145">
        <ele>1036</ele>
        <time>2019-04-12T13:10:56Z</time>
      </trkpt>
      <trkpt lat="48.12831" lon="7.10147">
        <ele>1035</ele>
        <time>2019-04-12T13:11:56Z</time>
      </trkpt>
      <trkpt lat="48.12788" lon="7.10138">
        <ele>1024</ele>
        <time>2019-04-12T13:12:56Z</time>
      </trkpt>
      <trkpt lat="48.12765" lon="7.10128">
        <ele>1020</ele>
        <time>2019-04-12T13:13:56Z</time>
      </trkpt>
      <trkpt lat="48.12734" lon="7.10071">
        <ele>1022</ele>
        <time>2019-04-12T13:14:56Z</time>
      </trkpt>
      <trkpt lat="48.1272" lon="7.10006">
        <ele>1033</ele>
        <time>2019-04-12T13:15:56Z</time>
      </trkpt>
      <trkpt lat="48.12737" lon="7.09933">
        <ele>1059</ele>
        <time>2019-04-12T13:16:56Z</time>
      </trkpt>
      <trkpt lat="48.12787" lon="7.09941">
        <ele>1064</ele>
        <time>2019-04-12T13:17:56Z</time>
      </trkpt>
      <trkpt lat="48.12801" lon="7.09921">
        <ele>1068</ele>
        <time>2019-04-12T13:18:56Z</time>
      </trkpt>
      <trkpt lat="48.12773" lon="7.09915">
        <ele>1068</ele>
        <time>2019-04-12T13:19:56Z</time>
      </trkpt>
      <trkpt lat="48.12743" lon="7.09899">
        <ele>1069</ele>
        <time>2019-04-12T13:20:56Z</time>
      </trkpt>
      <trkpt lat="48.12731" lon="7.09889">
        <ele>1067</ele>
        <time>2019-04-12T13:21:56Z</time>
      </trkpt>
      <trkpt lat="48.12722" lon="7.09863">
        <ele>1071</ele>
        <time>2019-04-12T13:22:56Z</time>
      </trkpt>
      <trkpt lat="48.12723" lon="7.09818">
        <ele>1081</ele>
        <time>2019-04-12T13:23:56Z</time>
      </trkpt>
      <trkpt lat="48.12741" lon="7.09799">
        <ele>1089</ele>
        <time>2019-04-12T13:24:56Z</time>
      </trkpt>
      <trkpt lat="48.12785" lon="7.09786">
        <ele>1089</ele>
        <time>2019-04-12T13:25:56Z</time>
      </trkpt>
      <trkpt lat="48.12798" lon="7.09747">
        <ele>1093</ele>
        <time>2019-04-12T13:26:56Z</time>
      </trkpt>
      <trkpt lat="48.12776" lon="7.09747">
        <ele>1096</ele>
        <time>2019-04-12T13:27:56Z</time>
      </trkpt>
      <trkpt lat="48.1275" lon="7.09751">
        <ele>1099</ele>
        <time>2019-04-12T13:28:56Z</time>
      </trkpt>
      <trkpt lat="48.12707" lon="7.09714">
        <ele>1095</ele>
        <time>2019-04-12T13:29:56Z</time>
      </trkpt>
      <trkpt lat="48.12726" lon="7.09685">
        <ele>1101</ele>
        <time>2019-04-12T13:30:56Z</time>
      </trkpt>
      <trkpt lat="48.12714" lon="7.09664">
        <ele>1101</ele>
        <time>2019-04-12T13:31:56Z</time>
      </trkpt>
      <trkpt lat="48.12718" lon="7.09659">
        <ele>1101</ele>
        <time>2019-04-12T13:32:56Z</time>
      </trkpt>
      <trkpt lat="48.12748" lon="7.0964">
        <ele>1107</ele>
        <time>2019-04-12T13:33:56Z</time>
      </trkpt>
      <trkpt lat="48.1274" lon="7.09629">
        <ele>1107</ele>
        <time>2019-04-12T13:34:56Z</time>
      </trkpt>
      <trkpt lat="48.12667" lon="7.09589">
        <ele>1096</ele>
        <time>2019-04-12T13:35:56Z</time>
      </trkpt>
      <trkpt lat="48.12743" lon="7.09542">
        <ele>1107</ele>
        <time>2019-04-12T13:36:56Z</time>
      </trkpt>
      <trkpt lat="48.12822" lon="7.0945">
        <ele>1115</ele>
        <time>2019-04-12T13:37:56Z</time>
      </trkpt>
      <trkpt lat="48.12903" lon="7.09375">
        <ele>1122</ele>
        <time>2019-04-12T13:38:56Z</time>
      </trkpt>
      <trkpt lat="48.12955" lon="7.09329">
        <ele>1123</ele>
        <time>2019-04-12T13:39:56Z</time>
      </trkpt>
      <trkpt lat="48.12983" lon="7.09313">
        <ele>1123</ele>
        <time>2019-04-12T13:40:56Z</time>
      </trkpt>
      <trkpt lat="48.13049" lon="7.09311">
        <ele>1121</ele>
        <time>2019-04-12T13:41:56Z</time>
      </trkpt>
      <trkpt lat="48.13177" lon="7.09295">
        <ele>1111</ele>
        <time>2019-04-12T13:42:56Z</time>
      </trkpt>
      <trkpt lat="48.13181" lon="7.09297">
        <ele>1111</ele>
        <time>2019-04-12T13:43:56Z</time>
      </trkpt>
      <trkpt lat="48.13223" lon="7.09291">
        <ele>1108</ele>
        <time>2019-04-12T13:44:56Z</time>
      </trkpt>
      <trkpt lat="48.13255" lon="7.0928">
        <ele>1107</ele>
        <time>2019-04-12T13:45:56Z</time>
      </trkpt>
      <trkpt lat="48.13301" lon="7.09301">
        <ele>1107</ele>
        <time>2019-04-12T13:46:56Z</time>
      </trkpt>
      <trkpt lat="48.13311" lon="7.09304">
        <ele>1107</ele>
        <time>2019-04-12T13:47:56Z</time>
      </trkpt>
      <trkpt lat="48.13347" lon="7.09289">
        <ele>1108</ele>
        <time>2019-04-12T13:48:56Z</time>
      </trkpt>
      <trkpt lat="48.13338" lon="7.09261">
        <ele>1106</ele>
        <time>2019-04-12T13:49:56Z</time>
      </trkpt>
      <trkpt lat="48.13322" lon="7.09238">
        <ele>1104</ele>
        <time>2019-04-12T13:50:56Z</time>
      </trkpt>
      <trkpt lat="48.13293" lon="7.0923">
        <ele>1104</ele>
        <time>2019-04-12T13:51:56Z</time>
      </trkpt>
      <trkpt lat="48.13005" lon="7.0918">
        <ele>1099</ele>
        <time>2019-04-12T13:52:56Z</time>
      </trkpt>
      <trkpt lat="48.12955" lon="7.09178">
        <ele>1092</ele>
        <time>2019-04-12T13:53:56Z</time>
      </trkpt>
      <trkpt lat="48.12928" lon="7.09194">
        <ele>1092</ele>
        <time>2019-04-12T13:54:56Z</time>
      </trkpt>
      <trkpt lat="48.12925" lon="7.0919">
        <ele>1091</ele>
        <time>2019-04-12T13:55:56Z</time>
      </trkpt>
      <trkpt lat="48.12893" lon="7.09229">
        <ele>1092</ele>
        <time>2019-04-12T13:56:56Z</time>
      </trkpt>
      <trkpt lat="48.12815" lon="7.09318">
        <ele>1089</ele>
        <time>2019-04-12T13:57:56Z</time>
      </trkpt>
      <trkpt lat="48.12718" lon="7.09422">
        <ele>1081</ele>
        <time>2019-04-12T13:58:56Z</time>
      </trkpt>
      <trkpt lat="48.12669" lon="7.09466">
        <ele>1075</ele>
        <time>2019-04-12T13:59:56Z</time>
      </trkpt>
      <trkpt lat="48.1262" lon="7.09516">
        <ele>1072</ele>
        <time>2019-04-12T14:00:56Z</time>
      </trkpt>
      <trkpt lat="48.12536" lon="7.09634">
        <ele>1064</ele>
        <time>2019-04-12T14:01:56Z</time>
      </trkpt>
      <trkpt lat="48.12502" lon="7.09697">
        <ele>1059</ele>
        <time>2019-04-12T14:02:56Z</time>
      </trkpt>
      <trkpt lat="48.12482" lon="7.09749">
        <ele>1059</ele>
        <time>2019-04-12T14:03:56Z</time>
      </trkpt>
      <trkpt lat="48.12379" lon="7.09827">
        <ele>1047</ele>
        <time>2019-04-12T14:04:56Z</time>
      </trkpt>
      <trkpt lat="48.12366" lon="7.09858">
        <ele>1041</ele>
        <time>2019-04-12T14:05:56Z</time>
      </trkpt>
      <trkpt lat="48.12358" lon="7.09953">
        <ele>1024</ele>
        <time>2019-04-12T14:06:56Z</time>
      </trkpt>
      <trkpt lat="48.12339" lon="7.09983">
        <ele>1025</ele>
        <time>2019-04-12T14:07:56Z</time>
      </trkpt>
      <trkpt lat="48.12299" lon="7.09998">
        <ele>1024</ele>
        <time>2019-04-12T14:08:56Z</time>
      </trkpt>
      <trkpt lat="48.12282" lon="7.09912">
        <ele>1033</ele>
        <time>2019-04-12T14:09:56Z</time>
      </trkpt>
      <trkpt lat="48.12259" lon="7.09838">
        <ele>1046</ele>
        <time>2019-04-12T14:10:56Z</time>
      </trkpt>
      <trkpt lat="48.1223" lon="7.09798">
        <ele>1060</ele>
        <time>2019-04-12T14:11:56Z</time>
      </trkpt>
      <trkpt lat="48.1219" lon="7.09806">
        <ele>1060</ele>
        <time>2019-04-12T14:12:56Z</time>
      </trkpt>
      <trkpt lat="48.12166" lon="7.09828">
        <ele>1056</ele>
        <time>2019-04-12T14:13:56Z</time>
      </trkpt>
      <trkpt lat="48.12137" lon="7.09874">
        <ele>1057</ele>
        <time>2019-04-12T14:14:56Z</time>
      </trkpt>
      <trkpt lat="48.12115" lon="7.09938">
        <ele>1058</ele>
        <time>2019-04-12T14:15:56Z</time>
      </trkpt>
      <trkpt lat="48.12111" lon="7.09967">
        <ele>1059</ele>
        <time>2019-04-12T14:16:56Z</time>
      </trkpt>
      <trkpt lat="48.12121" lon="7.10049">
        <ele>1049</ele>
        <time>2019-04-12T14:17:56Z</time>
      </trkpt>
      <trkpt lat="48.12123" lon="7.10115">
        <ele>1041</ele>
        <time>2019-04-12T14:18:56Z</time>
      </trkpt>
      <trkpt lat="48.12107" lon="7.10145">
        <ele>1043</ele>
        <time>2019-04-12T14:19:56Z</time>
      </trkpt>
      <trkpt lat="48.12074" lon="7.10223">
        <ele>1043</ele>
        <time>2019-04-12T14:20:56Z</time>
      </trkpt>
      <trkpt lat="48.12077" lon="7.10277">
        <ele>1040</ele>
        <time>2019-04-12T14:21:56Z</time>
      </trkpt>
      <trkpt lat="48.1212" lon="7.10463">
        <ele>1042</ele>
        <time>2019-04-12T14:22:56Z</time>
      </trkpt>
      <trkpt lat="48.12138" lon="7.10552">
        <ele>1035</ele>
        <time>2019-04-12T14:23:56Z</time>
      </trkpt>
      <trkpt lat="48.12133" lon="7.1058">
        <ele>1035</ele>
        <time>2019-04-12T14:24:56Z</time>
      </trkpt>
      <trkpt lat="48.12128" lon="7.10603">
        <ele>1033</ele>
        <time>2019-04-12T14:25:56Z</time>
      </trkpt>
      <trkpt lat="48.12115" lon="7.10637">
        <ele>1030</ele>
        <time>2019-04-12T14:26:56Z</time>
      </trkpt>
      <trkpt lat="48.12088" lon="7.10675">
        <ele>1028</ele>
        <time>2019-04-12T14:27:56Z</time>
      </trkpt>
      <trkpt lat="48.12054" lon="7.10692">
        <ele>1026</ele>
        <time>2019-04-12T14:28:56Z</time>
      </trkpt>
      <trkpt lat="48.12025" lon="7.10679">
        <ele>1030</ele>
        <time>2019-04-12T14:29:56Z</time>
      </trkpt>
      <trkpt lat="48.11974" lon="7.10644">
        <ele>1035</ele>
        <time>2019-04-12T14:30:56Z</time>
      </trkpt>
      <trkpt lat="48.11924" lon="7.10621">
        <ele>1030</ele>
        <time>2019-04-12T14:31:56Z</time>
      </trkpt>
      <trkpt lat="48.11887" lon="7.10598">
        <ele>1024</ele>
        <time>2019-04-12T14:32:56Z</time>
      </trkpt>
      <trkpt lat="48.11823" lon="7.1054">
        <ele>1014</ele>
        <time>2019-04-12T14:33:56Z</time>
      </trkpt>
      <trkpt lat="48.11776" lon="7.10462">
        <ele>1013</ele>
        <time>2019-04-12T14:34:56Z</time>
      </trkpt>
      <trkpt lat="48.1172" lon="7.1031">
        <ele>1022</ele>
        <time>2019-04-12T14:35:56Z</time>
      </trkpt>
      <trkpt lat="48.11683" lon="7.10251">
        <ele>1025</ele>
        <time>2019-04-12T14:36:56Z</time>
      </trkpt>
      <trkpt lat="48.11685" lon="7.1025">
        <ele>1025</ele>
        <time>2019-04-12T14:37:56Z</time>
      </trkpt>
      <trkpt lat="48.11612" lon="7.10168">
        <ele>1025</ele>
        <time>2019-04-12T14:38:56Z</time>
      </trkpt>
      <trkpt lat="48.11515" lon="7.10191">
        <ele>1015</ele>
        <time>2019-04-12T14:39:56Z</time>
      </trkpt>
      <trkpt lat="48.11443" lon="7.10215">
        <ele>1004</ele>
        <time>2019-04-12T14:40:56Z</time>
      </trkpt>
      <trkpt lat="48.11396" lon="7.1021">
        <ele>995</ele>
        <time>2019-04-12T14:41:56Z</time>
      </trkpt>
      <trkpt lat="48.11342" lon="7.10172">
        <ele>985</ele>
        <time>2019-04-12T14:42:56Z</time>
      </trkpt>
      <trkpt lat="48.11309" lon="7.10123">
        <ele>979</ele>
        <time>2019-04-12T14:43:56Z</time>
      </trkpt>
      <trkpt lat="48.11284" lon="7.10079">
        <ele>972</ele>
        <time>2019-04-12T14:44:56Z</time>
      </trkpt>
      <trkpt lat="48.11286" lon="7.10073">
        <ele>972</ele>
        <time>2019-04-12T14:45:56Z</time>
      </trkpt>
      <trkpt lat="48.11269" lon="7.1001">
        <ele>960</ele>
        <time>2019-04-12T14:46:56Z</time>
      </trkpt>
      <trkpt lat="48.1125" lon="7.10005">
        <ele>954</ele>
        <time>2019-04-12T14:47:56Z</time>
      </trkpt>
      <trkpt lat="48.11234" lon="7.10004">
        <ele>959</ele>
        <time>2019-04-12T14:48:56Z</time>
      </trkpt>
      <trkpt lat="48.11227" lon="7.10018">
        <ele>963</ele>
        <time>2019-04-12T14:49:56Z</time>
      </trkpt>
      <trkpt lat="48.11218" lon="7.10095">
        <ele>972</ele>
        <time>2019-04-12T14:50:56Z</time>
      </trkpt>
      <trkpt lat="48.11202" lon="7.10136">
        <ele>974</ele>
        <time>2019-04-12T14:51:56Z</time>
      </trkpt>
      <trkpt lat="48.11134" lon="7.1023">
        <ele>978</ele>
        <time>2019-04-12T14:52:56Z</time>
      </trkpt>
      <trkpt lat="48.11086" lon="7.10281">
        <ele>978</ele>
        <time>2019-04-12T14:53:56Z</time>
      </trkpt>
      <trkpt lat="48.11017" lon="7.10309">
        <ele>974</ele>
        <time>2019-04-12T14:54:56Z</time>
      </trkpt>
      <trkpt lat="48.1102" lon="7.10309">
        <ele>974</ele>
        <time>2019-04-12T14:55:56Z</time>
      </trkpt>
      <trkpt lat="48.10944" lon="7.10327">
        <ele>971</ele>
        <time>2019-04-12T14:56:56Z</time>
      </trkpt>
      <trkpt lat="48.1089" lon="7.10328">
        <ele>973</ele>
        <time>2019-04-12T14:57:56Z</time>
      </trkpt>
      <trkpt lat="48.1083" lon="7.10337">
        <ele>975</ele>
        <time>2019-04-12T14:58:56Z</time>
      </trkpt>
      <trkpt lat="48.10782" lon="7.10338">
        <ele>974</ele>
        <time>2019-04-12T14:59:56Z</time>
      </trkpt>
      <trkpt lat="48.10755" lon="7.10319">
        <ele>977</ele>
        <time>2019-04-12T15:00:56Z</time>
      </trkpt>
      <trkpt lat="48.10687" lon="7.10333">
        <ele>976</ele>
        <time>2019-04-12T15:01:56Z</time>
      </trkpt>
      <trkpt lat="48.10658" lon="7.10332">
        <ele>977</ele>
        <time>2019-04-12T15:02:56Z</time>
      </trkpt>
      <trkpt lat="48.10622" lon="7.10323">
        <ele>980</ele>
        <time>2019-04-12T15:03:56Z</time>
      </trkpt>
      <trkpt lat="48.10602" lon="7.1032">
        <ele>982</ele>
        <time>2019-04-12T15:04:56Z</time>
      </trkpt>
      <trkpt lat="48.10578" lon="7.10328">
        <ele>980</ele>
        <time>2019-04-12T15:05:56Z</time>
      </trkpt>
      <trkpt lat="48.10539" lon="7.10348">
        <ele>979</ele>
        <time>2019-04-12T15:06:56Z</time>
      </trkpt>
      <trkpt lat="48.10516" lon="7.10366">
        <ele>977</ele>
        <time>2019-04-12T15:07:56Z</time>
      </trkpt>
      <trkpt lat="48.10523" lon="7.10363">
        <ele>977</ele>
        <time>2019-04-12T15:08:56Z</time>
      </trkpt>
      <trkpt lat="48.10492" lon="7.10394">
        <ele>971</ele>
        <time>2019-04-12T15:09:56Z</time>
      </trkpt>
      <trkpt lat="48.1043" lon="7.10419">
        <ele>970</ele>
        <time>2019-04-12T15:10:56Z</time>
      </trkpt>
      <trkpt lat="48.10402" lon="7.10443">
        <ele>969</ele>
        <time>2019-04-12T15:11:56Z</time>
      </trkpt>
      <trkpt lat="48.10371" lon="7.10494">
        <ele>964</ele>
        <time>2019-04-12T15:12:56Z</time>
      </trkpt>
      <trkpt lat="48.10326" lon="7.10544">
        <ele>959</ele>
        <time>2019-04-12T15:13:56Z</time>
      </trkpt>
      <trkpt lat="48.10284" lon="7.10577">
        <ele>961</ele>
        <time>2019-04-12T15:14:56Z</time>
      </trkpt>
      <trkpt lat="48.10222" lon="7.10659">
        <ele>955</ele>
        <time>2019-04-12T15:15:56Z</time>
      </trkpt>
      <trkpt lat="48.10149" lon="7.1074">
        <ele>956</ele>
        <time>2019-04-12T15:16:56Z</time>
      </trkpt>
      <trkpt lat="48.10097" lon="7.10809">
        <ele>952</ele>
        <time>2019-04-12T15:17:56Z</time>
      </trkpt>
      <trkpt lat="48.10072" lon="7.10854">
        <ele>948</ele>
        <time>2019-04-12T15:18:56Z</time>
      </trkpt>
      <trkpt lat="48.10061" lon="7.10913">
        <ele>941</ele>
        <time>2019-04-12T15:19:56Z</time>
      </trkpt>
      <trkpt lat="48.10067" lon="7.10978">
        <ele>935</ele>
        <time>2019-04-12T15:20:56Z</time>
      </trkpt>
      <trkpt lat="48.10075" lon="7.11012">
        <ele>932</ele>
        <time>2019-04-12T15:21:56Z</time>
      </trkpt>
      <trkpt lat="48.10096" lon="7.11095">
        <ele>923</ele>
        <time>2019-04-12T15:22:56Z</time>
      </trkpt>
      <trkpt lat="48.10163" lon="7.11238">
        <ele>905</ele>
        <time>2019-04-12T15:23:56Z</time>
      </trkpt>
      <trkpt lat="48.1017" lon="7.11236">
        <ele>905</ele>
        <time>2019-04-12T15:24:56Z</time>
      </trkpt>
      <trkpt lat="48.1019" lon="7.11298">
        <ele>898</ele>
        <time>2019-04-12T15:25:56Z</time>
      </trkpt>
      <trkpt lat="48.10147" lon="7.11291">
        <ele>900</ele>
        <time>2019-04-12T15:26:56Z</time>
      </trkpt>
      <trkpt lat="48.10046" lon="7.11282">
        <ele>898</ele>
        <time>2019-04-12T15:27:56Z</time>
      </trkpt>
      <trkpt lat="48.09979" lon="7.11259">
        <ele>897</ele>
        <time>2019-04-12T15:28:56Z</time>
      </trkpt>
      <trkpt lat="48.09885" lon="7.11207">
        <ele>899</ele>
        <time>2019-04-12T15:29:56Z</time>
      </trkpt>
      <trkpt lat="48.09886" lon="7.11208">
        <ele>899</ele>
        <time>2019-04-12T15:30:56Z</time>
      </trkpt>
      <trkpt lat="48.09842" lon="7.11189">
        <ele>901</ele>
        <time>2019-04-12T15:31:56Z</time>
      </trkpt>
      <trkpt lat="48.09831" lon="7.1118">
        <ele>903</ele>
        <time>2019-04-12T15:32:56Z</time>
      </trkpt>
      <trkpt lat="48.09813" lon="7.11149">
        <ele>907</ele>
        <time>2019-04-12T15:33:56Z</time>
      </trkpt>
      <trkpt lat="48.09727" lon="7.11159">
        <ele>913</ele>
        <time>2019-04-12T15:34:56Z</time>
      </trkpt>
      <trkpt lat="48.0964" lon="7.11171">
        <ele>918</ele>
        <time>2019-04-12T15:35:56Z</time>
      </trkpt>
      <trkpt lat="48.09576" lon="7.1116">
        <ele>917</ele>
        <time>2019-04-12T15:36:56Z</time>
      </trkpt>
      <trkpt lat="48.0955" lon="7.11158">
        <ele>917</ele>
        <time>2019-04-12T15:37:56Z</time>
      </trkpt>
      <trkpt lat="48.09447" lon="7.11172">
        <ele>917</ele>
        <time>2019-04-12T15:38:56Z</time>
      </trkpt>
      <trkpt lat="48.09449" lon="7.11174">
        <ele>917</ele>
        <time>2019-04-12T15:39:56Z</time>
      </trkpt>
      <trkpt lat="48.09399" lon="7.11176">
        <ele>920</ele>
        <time>2019-04-12T15:40:56Z</time>
      </trkpt>
      <trkpt lat="48.09353" lon="7.1114">
        <ele>928</ele>
        <time>2019-04-12T15:41:56Z</time>
      </trkpt>
      <trkpt lat="48.09328" lon="7.11134">
        <ele>931</ele>
        <time>2019-04-12T15:42:56Z</time>
      </trkpt>
      <trkpt lat="48.09259" lon="7.11135">
        <ele>939</ele>
        <time>2019-04-12T15:43:56Z</time>
      </trkpt>
      <trkpt lat="48.09239" lon="7.11144">
        <ele>941</ele>
        <time>2019-04-12T15:44:56Z</time>
      </trkpt>
      <trkpt lat="48.0921" lon="7.11182">
        <ele>942</ele>
        <time>2019-04-12T15:45:56Z</time>
      </trkpt>
      <trkpt lat="48.09165" lon="7.11227">
        <ele>947</ele>
        <time>2019-04-12T15:46:56Z</time>
      </trkpt>
      <trkpt lat="48.09147" lon="7.11244">
        <ele>948</ele>
        <time>2019-04-12T15:47:56Z</time>
      </trkpt>
      <trkpt lat="48.09129" lon="7.1124">
        <ele>949</ele>
        <time>2019-04-12T15:48:56Z</time>
      </trkpt>
      <trkpt lat="48.09118" lon="7.11236">
        <ele>950</ele>
        <time>2019-04-12T15:49:56Z</time>
      </trkpt>
      <trkpt lat="48.09107" lon="7.11225">
        <ele>951</ele>
        <time>2019-04-12T15:50:56Z</time>
      </trkpt>
      <trkpt lat="48.09091" lon="7.11235">
        <ele>952</ele>
        <time>2019-04-12T15:51:56Z</time>
      </trkpt>
      <trkpt lat="48.09068" lon="7.11233">
        <ele>950</ele>
        <time>2019-04-12T15:52:56Z</time>
      </trkpt>
      <trkpt lat="48.09048" lon="7.11211">
        <ele>946</ele>
        <time>2019-04-12T15:53:56Z</time>
      </trkpt>
      <trkpt lat="48.09013" lon="7.11248">
        <ele>940</ele>
        <time>2019-04-12T15:54:56Z</time>
      </trkpt>
      <trkpt lat="48.08985" lon="7.11293">
        <ele>934</ele>
        <time>2019-04-12T15:55:56Z</time>
      </trkpt>
      <trkpt lat="48.08981" lon="7.11306">
        <ele>932</ele>
        <time>2019-04-12T15:56:56Z</time>
      </trkpt>
      <trkpt lat="48.08978" lon="7.11329">
        <ele>931</ele>
        <time>2019-04-12T15:57:56Z</time>
      </trkpt>
      <trkpt lat="48.08973" lon="7.11344">
        <ele>929</ele>
        <time>2019-04-12T15:58:56Z</time>
      </trkpt>
      <trkpt lat="48.08938" lon="7.11389">
        <ele>917</ele>
        <time>2019-04-12T15:59:56Z</time>
      </trkpt>
      <trkpt lat="48.08929" lon="7.11446">
        <ele>914</ele>
        <time>2019-04-12T16:00:56Z</time>
      </trkpt>
      <trkpt lat="48.08904" lon="7.11497">
        <ele>908</ele>
        <time>2019-04-12T16:01:56Z</time>
      </trkpt>
      <trkpt lat="48.08894" lon="7.1151">
        <ele>906</ele>
        <time>2019-04-12T16:02:56Z</time>
      </trkpt>
      <trkpt lat="48.0889" lon="7.11518">
        <ele>905</ele>
        <time>2019-04-12T16:03:56Z</time>
      </trkpt>
      <trkpt lat="48.08866" lon="7.11546">
        <ele>900</ele>
        <time>2019-04-12T16:04:56Z</time>
      </trkpt>
      <trkpt lat="48.0883" lon="7.1158">
        <ele>894</ele>
        <time>2019-04-12T16:05:56Z</time>
      </trkpt>
      <trkpt lat="48.08806" lon="7.11589">
        <ele>891</ele>
        <time>2019-04-12T16:06:56Z</time>
      </trkpt>
      <trkpt lat="48.08789" lon="7.11606">
        <ele>889</ele>
        <time>2019-04-12T16:07:56Z</time>
      </trkpt>
      <trkpt lat="48.08786" lon="7.11628">
        <ele>889</ele>
        <time>2019-04-12T16:08:56Z</time>
      </trkpt>
      <trkpt lat="48.08785" lon="7.11629">
        <ele>889</ele>
        <time>2019-04-12T16:09:56Z</time>
      </trkpt>
      <trkpt lat="48.088" lon="7.11678">
        <ele>889</ele>
        <time>2019-04-12T16:10:56Z</time>
      </trkpt>
      <trkpt lat="48.08817" lon="7.11708">
        <ele>888</ele>
        <time>2019-04-12T16:11:56Z</time>
      </trkpt>
      <trkpt lat="48.08923" lon="7.1179">
        <ele>887</ele>
        <time>2019-04-12T16:12:56Z</time>
      </trkpt>
      <trkpt lat="48.08895" lon="7.11841">
        <ele>880</ele>
        <time>2019-04-12T16:13:56Z</time>
      </trkpt>
      <trkpt lat="48.08873" lon="7.11863">
        <ele>880</ele>
        <time>2019-04-12T16:14:56Z</time>
      </trkpt>
      <trkpt lat="48.08829" lon="7.11889">
        <ele>882</ele>
        <time>2019-04-12T16:15:56Z</time>
      </trkpt>
      <trkpt lat="48.08776" lon="7.11971">
        <ele>887</ele>
        <time>2019-04-12T16:16:56Z</time>
      </trkpt>
      <trkpt lat="48.08743" lon="7.12066">
        <ele>889</ele>
        <time>2019-04-12T16:17:56Z</time>
      </trkpt>
      <trkpt lat="48.08741" lon="7.12101">
        <ele>889</ele>
        <time>2019-04-12T16:18:56Z</time>
      </trkpt>
      <trkpt lat="48.08759" lon="7.12229">
        <ele>884</ele>
        <time>2019-04-12T16:19:56Z</time>
      </trkpt>
      <trkpt lat="48.08759" lon="7.12294">
        <ele>884</ele>
        <time>2019-04-12T16:20:56Z</time>
      </trkpt>
      <trkpt lat="48.08757" lon="7.12299">
        <ele>885</ele>
        <time>2019-04-12T16:21:56Z</time>
      </trkpt>
      <trkpt lat="48.08744" lon="7.12424">
        <ele>884</ele>
        <time>2019-04-12T16:22:56Z</time>
      </trkpt>
      <trkpt lat="48.08722" lon="7.12524">
        <ele>885</ele>
        <time>2019-04-12T16:23:56Z</time>
      </trkpt>
      <trkpt lat="48.08686" lon="7.1263">
        <ele>888</ele>
        <time>2019-04-12T16:24:56Z</time>
      </trkpt>
      <trkpt lat="48.08629" lon="7.12728">
        <ele>893</ele>
        <time>2019-04-12T16:25:56Z</time>
      </trkpt>
      <trkpt lat="48.08582" lon="7.12803">
        <ele>890</ele>
        <time>2019-04-12T16:26:56Z</time>
      </trkpt>
      <trkpt lat="48.08538" lon="7.12835">
        <ele>889</ele>
        <time>2019-04-12T16:27:56Z</time>
      </trkpt>
      <trkpt lat="48.08498" lon="7.12842">
        <ele>890</ele>
        <time>2019-04-12T16:28:56Z</time>
      </trkpt>
      <trkpt lat="48.08424" lon="7.12849">
        <ele>888</ele>
        <time>2019-04-12T16:29:56Z</time>
      </trkpt>
      <trkpt lat="48.08371" lon="7.12847">
        <ele>890</ele>
        <time>2019-04-12T16:30:56Z</time>
      </trkpt>
      <trkpt lat="48.08343" lon="7.1284">
        <ele>892</ele>
        <time>2019-04-12T16:31:56Z</time>
      </trkpt>
      <trkpt lat="48.08313" lon="7.1285">
        <ele>893</ele>
        <time>2019-04-12T16:32:56Z</time>
      </trkpt>
      <trkpt lat="48.0828" lon="7.12888">
        <ele>890</ele>
        <time>2019-04-12T16:33:56Z</time>
      </trkpt>
      <trkpt lat="48.08273" lon="7.12912">
        <ele>887</ele>
        <time>2019-04-12T16:34:56Z</time>
      </trkpt>
      <trkpt lat="48.08268" lon="7.12952">
        <ele>885</ele>
        <time>2019-04-12T16:35:56Z</time>
      </trkpt>
      <trkpt lat="48.08273" lon="7.13033">
        <ele>887</ele>
        <time>2019-04-12T16:36:56Z</time>
      </trkpt>
      <trkpt lat="48.08281" lon="7.13037">
        <ele>886</ele>
        <time>2019-04-12T16:37:56Z</time>
      </trkpt>
      <trkpt lat="48.08283" lon="7.13088">
        <ele>892</ele>
        <time>2019-04-12T16:38:56Z</time>
      </trkpt>
      <trkpt lat="48.08348" lon="7.13201">
        <ele>891</ele>
        <time>2019-04-12T16:39:56Z</time>
      </trkpt>
      <trkpt lat="48.08405" lon="7.13304">
        <ele>887</ele>
        <time>2019-04-12T16:40:56Z</time>
      </trkpt>
      <trkpt lat="48.08499" lon="7.13531">
        <ele>893</ele>
        <time>2019-04-12T16:41:56Z</time>
      </trkpt>
      <trkpt lat="48.08553" lon="7.13603">
        <ele>888</ele>
        <time>2019-04-12T16:42:56Z</time>
      </trkpt>
      <trkpt lat="48.0859" lon="7.13674">
        <ele>891</ele>
        <time>2019-04-12T16:43:56Z</time>
      </trkpt>
      <trkpt lat="48.08642" lon="7.13736">
        <ele>884</ele>
        <time>2019-04-12T16:44:56Z</time>
      </trkpt>
      <trkpt lat="48.08663" lon="7.13768">
        <ele>884</ele>
        <time>2019-04-12T16:45:56Z</time>
      </trkpt>
      <trkpt lat="48.08744" lon="7.13876">
        <ele>881</ele>
        <time>2019-04-12T16:46:56Z</time>
      </trkpt>
      <trkpt lat="48.08779" lon="7.1396">
        <ele>882</ele>
        <time>2019-04-12T16:47:56Z</time>
      </trkpt>
      <trkpt lat="48.08802" lon="7.14053">
        <ele>880</ele>
        <time>2019-04-12T16:48:56Z</time>
      </trkpt>
      <trkpt lat="48.08799" lon="7.1414">
        <ele>880</ele>
        <time>2019-04-12T16:49:56Z</time>
      </trkpt>
      <trkpt lat="48.08793" lon="7.14227">
        <ele>873</ele>
        <time>2019-04-12T16:50:56Z</time>
      </trkpt>
      <trkpt lat="48.08768" lon="7.14326">
        <ele>869</ele>
        <time>2019-04-12T16:51:56Z</time>
      </trkpt>
      <trkpt lat="48.08757" lon="7.14385">
        <ele>862</ele>
        <time>2019-04-12T16:52:56Z</time>
      </trkpt>
      <trkpt lat="48.08692" lon="7.1448">
        <ele>862</ele>
        <time>2019-04-12T16:53:56Z</time>
      </trkpt>
      <trkpt lat="48.08658" lon="7.14544">
        <ele>861</ele>
        <time>2019-04-12T16:54:56Z</time>
      </trkpt>
      <trkpt lat="48.08642" lon="7.146">
        <ele>858</ele>
        <time>2019-04-12T16:55:56Z</time>
      </trkpt>
      <trkpt lat="48.08663" lon="7.14639">
        <ele>854</ele>
        <time>2019-04-12T16:56:56Z</time>
      </trkpt>
      <trkpt lat="48.08683" lon="7.1464">
        <ele>851</ele>
        <time>2019-04-12T16:57:56Z</time>
      </trkpt>
      <trkpt lat="48.08721" lon="7.14647">
        <ele>844</ele>
        <time>2019-04-12T16:58:56Z</time>
      </trkpt>
      <trkpt lat="48.08783" lon="7.14687">
        <ele>839</ele>
        <time>2019-04-12T16:59:56Z</time>
      </trkpt>
      <trkpt lat="48.08808" lon="7.14682">
        <ele>836</ele>
        <time>2019-04-12T17:00:56Z</time>
      </trkpt>
      <trkpt lat="48.09082" lon="7.14539">
        <ele>820</ele>
        <time>2019-04-12T17:01:56Z</time>
      </trkpt>
      <trkpt lat="48.09075" lon="7.14545">
        <ele>821</ele>
        <time>2019-04-12T17:02:56Z</time>
      </trkpt>
      <trkpt lat="48.09154" lon="7.14485">
        <ele>817</ele>
        <time>2019-04-12T17:03:56Z</time>
      </trkpt>
      <trkpt lat="48.09182" lon="7.14457">
        <ele>815</ele>
        <time>2019-04-12T17:04:56Z</time>
      </trkpt>
      <trkpt lat="48.09255" lon="7.14316">
        <ele>790</ele>
        <time>2019-04-12T17:05:56Z</time>
      </trkpt>
      <trkpt lat="48.09322" lon="7.14282">
        <ele>787</ele>
        <time>2019-04-12T17:06:56Z</time>
      </trkpt>
      <trkpt lat="48.09359" lon="7.14265">
        <ele>784</ele>
        <time>2019-04-12T17:07:56Z</time>
      </trkpt>
      <trkpt lat="48.09431" lon="7.14268">
        <ele>786</ele>
        <time>2019-04-12T17:08:56Z</time>
      </trkpt>
      <trkpt lat="48.09454" lon="7.14301">
        <ele>796</ele>
        <time>2019-04-12T17:09:56Z</time>
      </trkpt>
      <trkpt lat="48.09505" lon="7.14279">
        <ele>789</ele>
        <time>2019-04-12T17:10:56Z</time>
      </trkpt>
      <trkpt lat="48.09638" lon="7.14331">
        <ele>795</ele>
        <time>2019-04-12T17:11:56Z</time>
      </trkpt>
      <trkpt lat="48.09782" lon="7.14378">
        <ele>797</ele>
        <time>2019-04-12T17:12:56Z</time>
      </trkpt>
      <trkpt lat="48.09787" lon="7.14375">
        <ele>796</ele>
        <time>2019-04-12T17:13:56Z</time>
      </trkpt>
      <trkpt lat="48.09844" lon="7.14394">
        <ele>796</ele>
        <time>2019-04-12T17:14:56Z</time>
      </trkpt>
      <trkpt lat="48.09902" lon="7.14429">
        <ele>793</ele>
        <time>2019-04-12T17:15:56Z</time>
      </trkpt>
      <trkpt lat="48.09924" lon="7.14478">
        <ele>797</ele>
        <time>2019-04-12T17:16:56Z</time>
      </trkpt>
      <trkpt lat="48.10015" lon="7.14624">
        <ele>802</ele>
        <time>2019-04-12T17:17:56Z</time>
      </trkpt>
      <trkpt lat="48.10036" lon="7.14657">
        <ele>803</ele>
        <time>2019-04-12T17:18:56Z</time>
      </trkpt>
      <trkpt lat="48.10082" lon="7.14748">
        <ele>805</ele>
        <time>2019-04-12T17:19:56Z</time>
      </trkpt>
      <trkpt lat="48.10105" lon="7.14801">
        <ele>807</ele>
        <time>2019-04-12T17:20:56Z</time>
      </trkpt>
      <trkpt lat="48.10123" lon="7.14846">
        <ele>810</ele>
        <time>2019-04-12T17:21:56Z</time>
      </trkpt>
      <trkpt lat="48.10179" lon="7.14912">
        <ele>806</ele>
        <time>2019-04-12T17:22:56Z</time>
      </trkpt>
      <trkpt lat="48.10242" lon="7.15015">
        <ele>808</ele>
        <time>2019-04-12T17:23:56Z</time>
      </trkpt>
      <trkpt lat="48.10326" lon="7.15107">
        <ele>806</ele>
        <time>2019-04-12T17:24:56Z</time>
      </trkpt>
      <trkpt lat="48.10429" lon="7.15187">
        <ele>804</ele>
        <time>2019-04-12T17:25:56Z</time>
      </trkpt>
      <trkpt lat="48.10515" lon="7.15228">
        <ele>801</ele>
        <time>2019-04-12T17:26:56Z</time>
      </trkpt>
      <trkpt lat="48.10611" lon="7.15254">
        <ele>797</ele>
        <time>2019-04-12T17:27:56Z</time>
      </trkpt>
      <trkpt lat="48.1066" lon="7.15255">
        <ele>792</ele>
        <time>2019-04-12T17:28:56Z</time>
      </trkpt>
      <trkpt lat="48.10738" lon="7.15292">
        <ele>788</ele>
        <time>2019-04-12T17:29:56Z</time>
      </trkpt>
      <trkpt lat="48.10744" lon="7.15303">
        <ele>790</ele>
        <time>2019-04-12T17:30:56Z</time>
      </trkpt>
      <trkpt lat="48.10817" lon="7.15343">
        <ele>780</ele>
        <time>2019-04-12T17:31:56Z</time>
      </trkpt>
      <trkpt lat="48.10872" lon="7.15426">
        <ele>776</ele>
        <time>2019-04-12T17:32:56Z</time>
      </trkpt>
      <trkpt lat="48.10932" lon="7.15505">
        <ele>765</ele>
        <time>2019-04-12T17:33:56Z</time>
      </trkpt>
      <trkpt lat="48.10947" lon="7.15567">
        <ele>767</ele>
        <time>2019-04-12T17:34:56Z</time>
      </trkpt>
      <trkpt lat="48.10964" lon="7.15602">
        <ele>765</ele>
        <time>2019-04-12T17:35:56Z</time>
      </trkpt>
      <trkpt lat="48.10969" lon="7.1565">
        <ele>763</ele>
        <time>2019-04-12T17:36:56Z</time>
      </trkpt>
      <trkpt lat="48.10972" lon="7.15677">
        <ele>762</ele>
        <time>2019-04-12T17:37:56Z</time>
      </trkpt>
      <trkpt lat="48.10909" lon="7.15779">
        <ele>766</ele>
        <time>2019-04-12T17:38:56Z</time>
      </trkpt>
      <trkpt lat="48.10834" lon="7.15907">
        <ele>763</ele>
        <time>2019-04-12T17:39:56Z</time>
      </trkpt>
      <trkpt lat="48.10783" lon="7.16006">
        <ele>763</ele>
        <time>2019-04-12T17:40:56Z</time>
      </trkpt>
      <trkpt lat="48.10756" lon="7.16047">
        <ele>764</ele>
        <time>2019-04-12T17:41:56Z</time>
      </trkpt>
      <trkpt lat="48.10711" lon="7.16053">
        <ele>765</ele>
        <time>2019-04-12T17:42:56Z</time>
      </trkpt>
      <trkpt lat="48.10626" lon="7.16046">
        <ele>764</ele>
        <time>2019-04-12T17:43:56Z</time>
      </trkpt>
      <trkpt lat="48.10562" lon="7.15999">
        <ele>767</ele>
        <time>2019-04-12T17:44:56Z</time>
      </trkpt>
      <trkpt lat="48.10423" lon="7.15876">
        <ele>763</ele>
        <time>2019-04-12T17:45:56Z</time>
      </trkpt>
      <trkpt lat="48.10297" lon="7.15773">
        <ele>766</ele>
        <time>2019-04-12T17:46:56Z</time>
      </trkpt>
      <trkpt lat="48.10231" lon="7.15724">
        <ele>773</ele>
        <time>2019-04-12T17:47:56Z</time>
      </trkpt>
      <trkpt lat="48.10193" lon="7.15723">
        <ele>770</ele>
        <time>2019-04-12T17:48:56Z</time>
      </trkpt>
      <trkpt lat="48.10104" lon="7.15695">
        <ele>775</ele>
        <time>2019-04-12T17:49:56Z</time>
      </trkpt>
      <trkpt lat="48.10022" lon="7.15661">
        <ele>785</ele>
        <time>2019-04-12T17:50:56Z</time>
      </trkpt>
      <trkpt lat="48.10018" lon="7.1565">
        <ele>789</ele>
        <time>2019-04-12T17:51:56Z</time>
      </trkpt>
      <trkpt lat="48.0977" lon="7.1554">
        <ele>805</ele>
        <time>2019-04-12T17:52:56Z</time>
      </trkpt>
      <trkpt lat="48.09551" lon="7.15449">
        <ele>809</ele>
        <time>2019-04-12T17:53:56Z</time>
      </trkpt>
      <trkpt lat="48.09486" lon="7.15433">
        <ele>813</ele>
        <time>2019-04-12T17:54:56Z</time>
      </trkpt>
      <trkpt lat="48.09395" lon="7.15455">
        <ele>810</ele>
        <time>2019-04-12T17:55:56Z</time>
      </trkpt>
      <trkpt lat="48.09302" lon="7.15484">
        <ele>810</ele>
        <time>2019-04-12T17:56:56Z</time>
      </trkpt>
      <trkpt lat="48.0924" lon="7.15505">
        <ele>810</ele>
        <time>2019-04-12T17:57:56Z</time>
      </trkpt>
      <trkpt lat="48.09181" lon="7.15523">
        <ele>811</ele>
        <time>2019-04-12T17:58:56Z</time>
      </trkpt>
      <trkpt lat="48.09114" lon="7.15554">
        <ele>814</ele>
        <time>2019-04-12T17:59:56Z</time>
      </trkpt>
      <trkpt lat="48.09091" lon="7.15572">
        <ele>813</ele>
        <time>2019-04-12T18:00:56Z</time>
      </trkpt>
      <trkpt lat="48.08961" lon="7.15718">
        <ele>815</ele>
        <time>2019-04-12T18:01:56Z</time>
      </trkpt>
      <trkpt lat="48.08959" lon="7.15715">
        <ele>816</ele>
        <time>2019-04-12T18:02:56Z</time>
      </trkpt>
      <trkpt lat="48.08905" lon="7.1576">
        <ele>821</ele>
        <time>2019-04-12T18:03:56Z</time>
      </trkpt>
      <trkpt lat="48.08916" lon="7.15785">
        <ele>820</ele>
        <time>2019-04-12T18:04:56Z</time>
      </trkpt>
      <trkpt lat="48.08971" lon="7.15746">
        <ele>809</ele>
        <time>2019-04-12T18:05:56Z</time>
      </trkpt>
      <trkpt lat="48.08982" lon="7.1577">
        <ele>808</ele>
        <time>2019-04-12T18:06:56Z</time>
      </trkpt>
      <trkpt lat="48.09039" lon="7.15796">
        <ele>804</ele>
        <time>2019-04-12T18:07:56Z</time>
      </trkpt>
      <trkpt lat="48.09058" lon="7.15818">
        <ele>805</ele>
        <time>2019-04-12T18:08:56Z</time>
      </trkpt>
      <trkpt lat="48.09172" lon="7.15902">
        <ele>809</ele>
        <time>2019-04-12T18:09:56Z</time>
      </trkpt>
      <trkpt lat="48.09279" lon="7.15993">
        <ele>816</ele>
        <time>2019-04-12T18:10:56Z</time>
      </trkpt>
      <trkpt lat="48.0935" lon="7.16073">
        <ele>818</ele>
        <time>2019-04-12T18:11:56Z</time>
      </trkpt>
      <trkpt lat="48.09447" lon="7.1623">
        <ele>816</ele>
        <time>2019-04-12T18:12:56Z</time>
      </trkpt>
      <trkpt lat="48.09497" lon="7.16322">
        <ele>816</ele>
        <time>2019-04-12T18:13:56Z</time>
      </trkpt>
      <trkpt lat="48.09584" lon="7.16505">
        <ele>814</ele>
        <time>2019-04-12T18:14:56Z</time>
      </trkpt>
      <trkpt lat="48.09568" lon="7.16567">
        <ele>817</ele>
        <time>2019-04-12T18:15:56Z</time>
      </trkpt>
      <trkpt lat="48.09507" lon="7.16622">
        <ele>820</ele>
        <time>2019-04-12T18:16:56Z</time>
      </trkpt>
      <trkpt lat="48.09436" lon="7.16656">
        <ele>824</ele>
        <time>2019-04-12T18:17:56Z</time>
      </trkpt>
      <trkpt lat="48.09418" lon="7.16651">
        <ele>828</ele>
        <time>2019-04-12T18:18:56Z</time>
      </trkpt>
      <trkpt lat="48.09346" lon="7.16658">
        <ele>834</ele>
        <time>2019-04-12T18:19:56Z</time>
      </trkpt>
      <trkpt lat="48.09309" lon="7.16671">
        <ele>833</ele>
        <time>2019-04-12T18:20:56Z</time>
      </trkpt>
      <trkpt lat="48.09243" lon="7.16705">
        <ele>825</ele>
        <time>2019-04-12T18:21:56Z</time>
      </trkpt>
      <trkpt lat="48.09215" lon="7.16713">
        <ele>823</ele>
        <time>2019-04-12T18:22:56Z</time>
      </trkpt>
      <trkpt lat="48.09175" lon="7.16719">
        <ele>823</ele>
        <time>2019-04-12T18:23:56Z</time>
      </trkpt>
      <trkpt lat="48.09047" lon="7.16758">
        <ele>810</ele>
        <time>2019-04-12T18:24:56Z</time>
      </trkpt>
      <trkpt lat="48.08984" lon="7.16799">
        <ele>804</ele>
        <time>2019-04-12T18:25:56Z</time>
      </trkpt>
      <trkpt lat="48.08897" lon="7.16899">
        <ele>804</ele>
        <time>2019-04-12T18:26:56Z</time>
      </trkpt>
      <trkpt lat="48.08841" lon="7.16998">
        <ele>799</ele>
        <time>2019-04-12T18:27:56Z</time>
      </trkpt>
      <trkpt lat="48.08797" lon="7.17085">
        <ele>793</ele>
        <time>2019-04-12T18:28:56Z</time>
      </trkpt>
      <trkpt lat="48.08756" lon="7.17138">
        <ele>789</ele>
        <time>2019-04-12T18:29:56Z</time>
      </trkpt>
      <trkpt lat="48.0871" lon="7.17167">
        <ele>788</ele>
        <time>2019-04-12T18:30:56Z</time>
      </trkpt>
      <trkpt lat="48.08671" lon="7.17187">
        <ele>789</ele>
        <time>2019-04-12T18:31:56Z</time>
      </trkpt>
      <trkpt lat="48.08641" lon="7.17195">
        <ele>787</ele>
        <time>2019-04-12T18:32:56Z</time>
      </trkpt>
      <trkpt lat="48.08648" lon="7.17192">
        <ele>788</ele>
        <time>2019-04-12T18:33:56Z</time>
      </trkpt>
      <trkpt lat="48.08649" lon="7.17226">
        <ele>781</ele>
        <time>2019-04-12T18:34:56Z</time>
      </trkpt>
      <trkpt lat="48.08609" lon="7.17219">
        <ele>780</ele>
        <time>2019-04-12T18:35:56Z</time>
      </trkpt>
      <trkpt lat="48.08567" lon="7.17191">
        <ele>784</ele>
        <time>2019-04-12T18:36:56Z</time>
      </trkpt>
      <trkpt lat="48.08537" lon="7.17202">
        <ele>783</ele>
        <time>2019-04-12T18:37:56Z</time>
      </trkpt>
      <trkpt lat="48.08546" lon="7.17216">
        <ele>781</ele>
        <time>2019-04-12T18:38:56Z</time>
      </trkpt>
      <trkpt lat="48.0857" lon="7.17239">
        <ele>776</ele>
        <time>2019-04-12T18:39:56Z</time>
      </trkpt>
      <trkpt lat="48.08597" lon="7.17298">
        <ele>767</ele>
        <time>2019-04-12T18:40:56Z</time>
      </trkpt>
      <trkpt lat="48.08656" lon="7.17337">
        <ele>757</ele>
        <time>2019-04-12T18:41:56Z</time>
      </trkpt>
      <trkpt lat="48.0879" lon="7.1737">
        <ele>744</ele>
        <time>2019-04-12T18:42:56Z</time>
      </trkpt>
      <trkpt lat="48.08873" lon="7.17414">
        <ele>730</ele>
        <time>2019-04-12T18:43:56Z</time>
      </trkpt>
      <trkpt lat="48.0895" lon="7.17458">
        <ele>722</ele>
        <time>2019-04-12T18:44:56Z</time>
      </trkpt>
      <trkpt lat="48.08987" lon="7.17499">
        <ele>718</ele>
        <time>2019-04-12T18:45:56Z</time>
      </trkpt>
      <trkpt lat="48.08985" lon="7.17495">
        <ele>718</ele>
        <time>2019-04-12T18:46:56Z</time>
      </trkpt>
      <trkpt lat="48.08972" lon="7.17528">
        <ele>720</ele>
        <time>2019-04-12T18:47:56Z</time>
      </trkpt>
      <trkpt lat="48.08981" lon="7.17596">
        <ele>722</ele>
        <time>2019-04-12T18:48:56Z</time>
      </trkpt>
      <trkpt lat="48.08911" lon="7.17747">
        <ele>736</ele>
        <time>2019-04-12T18:49:56Z</time>
      </trkpt>
      <trkpt lat="48.08898" lon="7.17749">
        <ele>739</ele>
        <time>2019-04-12T18:50:56Z</time>
      </trkpt>
      <trkpt lat="48.08895" lon="7.17719">
        <ele>739</ele>
        <time>2019-04-12T18:51:56Z</time>
      </trkpt>
      <trkpt lat="48.08878" lon="7.17694">
        <ele>741</ele>
        <time>2019-04-12T18:52:56Z</time>
      </trkpt>
      <trkpt lat="48.0885" lon="7.17658">
        <ele>745</ele>
        <time>2019-04-12T18:53:56Z</time>
      </trkpt>
      <trkpt lat="48.0883" lon="7.17656">
        <ele>748</ele>
        <time>2019-04-12T18:54:56Z</time>
      </trkpt>
      <trkpt lat="48.08824" lon="7.17686">
        <ele>750</ele>
        <time>2019-04-12T18:55:56Z</time>
      </trkpt>
      <trkpt lat="48.08823" lon="7.17712">
        <ele>752</ele>
        <time>2019-04-12T18:56:56Z</time>
      </trkpt>
      <trkpt lat="48.0881" lon="7.17748">
        <ele>757</ele>
        <time>2019-04-12T18:57:56Z</time>
      </trkpt>
      <trkpt lat="48.08816" lon="7.17823">
        <ele>759</ele>
        <time>2019-04-12T18:58:56Z</time>
      </trkpt>
      <trkpt lat="48.08803" lon="7.17872">
        <ele>764</ele>
        <time>2019-04-12T18:59:56Z</time>
      </trkpt>
      <trkpt lat="48.08797" lon="7.17902">
        <ele>767</ele>
        <time>2019-04-12T19:00:56Z</time>
      </trkpt>
      <trkpt lat="48.08801" lon="7.17969">
        <ele>769</ele>
        <time>2019-04-12T19:01:56Z</time>
      </trkpt>
      <trkpt lat="48.08807" lon="7.18037">
        <ele>772</ele>
        <time>2019-04-12T19:02:56Z</time>
      </trkpt>
      <trkpt lat="48.08804" lon="7.18057">
        <ele>774</ele>
        <time>2019-04-12T19:03:56Z</time>
      </trkpt>
      <trkpt lat="48.08794" lon="7.18076">
        <ele>777</ele>
        <time>2019-04-12T19:04:56Z</time>
      </trkpt>
      <trkpt lat="48.08758" lon="7.18123">
        <ele>789</ele>
        <time>2019-04-12T19:05:56Z</time>
      </trkpt>
      <trkpt lat="48.08741" lon="7.18152">
        <ele>795</ele>
        <time>2019-04-12T19:06:56Z</time>
      </trkpt>
      <trkpt lat="48.08739" lon="7.18202">
        <ele>805</ele>
        <time>2019-04-12T19:07:56Z</time>
      </trkpt>
      <trkpt lat="48.08731" lon="7.18245">
        <ele>816</ele>
        <time>2019-04-12T19:08:56Z</time>
      </trkpt>
      <trkpt lat="48.08743" lon="7.18276">
        <ele>820</ele>
        <time>2019-04-12T19:09:56Z</time>
      </trkpt>
      <trkpt lat="48.08766" lon="7.18312">
        <ele>826</ele>
        <time>2019-04-12T19:10:56Z</time>
      </trkpt>
      <trkpt lat="48.08778" lon="7.18354">
        <ele>834</ele>
        <time>2019-04-12T19:11:56Z</time>
      </trkpt>
      <trkpt lat="48.08791" lon="7.18378">
        <ele>838</ele>
        <time>2019-04-12T19:12:56Z</time>
      </trkpt>
      <trkpt lat="48.08814" lon="7.18407">
        <ele>844</ele>
        <time>2019-04-12T19:13:56Z</time>
      </trkpt>
      <trkpt lat="48.08924" lon="7.18424">
        <ele>848</ele>
        <time>2019-04-12T19:14:56Z</time>
      </trkpt>
      <trkpt lat="48.08977" lon="7.18453">
        <ele>848</ele>
        <time>2019-04-12T19:15:56Z</time>
      </trkpt>
      <trkpt lat="48.09031" lon="7.18461">
        <ele>844</ele>
        <time>2019-04-12T19:16:56Z</time>
      </trkpt>
      <trkpt lat="48.09061" lon="7.18444">
        <ele>838</ele>
        <time>2019-04-12T19:17:56Z</time>
      </trkpt>
      <trkpt lat="48.0913" lon="7.18443">
        <ele>844</ele>
        <time>2019-04-12T19:18:56Z</time>
      </trkpt>
      <trkpt lat="48.09126" lon="7.1844">
        <ele>843</ele>
        <time>2019-04-12T19:19:56Z</time>
      </trkpt>
      <trkpt lat="48.09168" lon="7.18396">
        <ele>849</ele>
        <time>2019-04-12T19:20:56Z</time>
      </trkpt>
      <trkpt lat="48.09198" lon="7.18335">
        <ele>854</ele>
        <time>2019-04-12T19:21:56Z</time>
      </trkpt>
      <trkpt lat="48.0925" lon="7.18209">
        <ele>854</ele>
        <time>2019-04-12T19:22:56Z</time>
      </trkpt>
      <trkpt lat="48.09307" lon="7.18093">
        <ele>853</ele>
        <time>2019-04-12T19:23:56Z</time>
      </trkpt>
      <trkpt lat="48.09358" lon="7.18014">
        <ele>852</ele>
        <time>2019-04-12T19:24:56Z</time>
      </trkpt>
      <trkpt lat="48.09397" lon="7.17984">
        <ele>851</ele>
        <time>2019-04-12T19:25:56Z</time>
      </trkpt>
      <trkpt lat="48.09421" lon="7.17942">
        <ele>848</ele>
        <time>2019-04-12T19:26:56Z</time>
      </trkpt>
      <trkpt lat="48.09471" lon="7.17893">
        <ele>839</ele>
        <time>2019-04-12T19:27:56Z</time>
      </trkpt>
      <trkpt lat="48.09513" lon="7.179">
        <ele>838</ele>
        <time>2019-04-12T19:28:56Z</time>
      </trkpt>
      <trkpt lat="48.09568" lon="7.17892">
        <ele>833</ele>
        <time>2019-04-12T19:29:56Z</time>
      </trkpt>
      <trkpt lat="48.09591" lon="7.1788">
        <ele>829</ele>
        <time>2019-04-12T19:30:56Z</time>
      </trkpt>
      <trkpt lat="48.09661" lon="7.1781">
        <ele>815</ele>
        <time>2019-04-12T19:31:56Z</time>
      </trkpt>
      <trkpt lat="48.09703" lon="7.17837">
        <ele>818</ele>
        <time>2019-04-12T19:32:56Z</time>
      </trkpt>
      <trkpt lat="48.09746" lon="7.17891">
        <ele>818</ele>
        <time>2019-04-12T19:33:56Z</time>
      </trkpt>
      <trkpt lat="48.09768" lon="7.17941">
        <ele>821</ele>
        <time>2019-04-12T19:34:56Z</time>
      </trkpt>
      <trkpt lat="48.09793" lon="7.18057">
        <ele>815</ele>
        <time>2019-04-12T19:35:56Z</time>
      </trkpt>
      <trkpt lat="48.09798" lon="7.18091">
        <ele>811</ele>
        <time>2019-04-12T19:36:56Z</time>
      </trkpt>
      <trkpt lat="48.09798" lon="7.18158">
        <ele>804</ele>
        <time>2019-04-12T19:37:56Z</time>
      </trkpt>
      <trkpt lat="48.09803" lon="7.18253">
        <ele>797</ele>
        <time>2019-04-12T19:38:56Z</time>
      </trkpt>
      <trkpt lat="48.09806" lon="7.18287">
        <ele>795</ele>
        <time>2019-04-12T19:39:56Z</time>
      </trkpt>
      <trkpt lat="48.09811" lon="7.18368">
        <ele>792</ele>
        <time>2019-04-12T19:40:56Z</time>
      </trkpt>
      <trkpt lat="48.09851" lon="7.18503">
        <ele>782</ele>
        <time>2019-04-12T19:41:56Z</time>
      </trkpt>
      <trkpt lat="48.09872" lon="7.18592">
        <ele>780</ele>
        <time>2019-04-12T19:42:56Z</time>
      </trkpt>
      <trkpt lat="48.09876" lon="7.18647">
        <ele>782</ele>
        <time>2019-04-12T19:43:56Z</time>
      </trkpt>
      <trkpt lat="48.09894" lon="7.18719">
        <ele>784</ele>
        <time>2019-04-12T19:44:56Z</time>
      </trkpt>
      <trkpt lat="48.09935" lon="7.18709">
        <ele>782</ele>
        <time>2019-04-12T19:45:56Z</time>
      </trkpt>
      <trkpt lat="48.09984" lon="7.18663">
        <ele>779</ele>
        <time>2019-04-12T19:46:56Z</time>
      </trkpt>
      <trkpt lat="48.10013" lon="7.18656">
        <ele>779</ele>
        <time>2019-04-12T19:47:56Z</time>
      </trkpt>
      <trkpt lat="48.10131" lon="7.18653">
        <ele>781</ele>
        <time>2019-04-12T19:48:56Z</time>
      </trkpt>
      <trkpt lat="48.1017" lon="7.18674">
        <ele>782</ele>
        <time>2019-04-12T19:49:56Z</time>
      </trkpt>
      <trkpt lat="48.10305" lon="7.18683">
        <ele>774</ele>
        <time>2019-04-12T19:50:56Z</time>
      </trkpt>
      <trkpt lat="48.10334" lon="7.18702">
        <ele>773</ele>
        <time>2019-04-12T19:51:56Z</time>
      </trkpt>
      <trkpt lat="48.10342" lon="7.18713">
        <ele>773</ele>
        <time>2019-04-12T19:52:56Z</time>
      </trkpt>
      <trkpt lat="48.10349" lon="7.18818">
        <ele>765</ele>
        <time>2019-04-12T19:53:56Z</time>
      </trkpt>
      <trkpt lat="48.1036" lon="7.18873">
        <ele>760</ele>
        <time>2019-04-12T19:54:56Z</time>
      </trkpt>
      <trkpt lat="48.10416" lon="7.18938">
        <ele>755</ele>
        <time>2019-04-12T19:55:56Z</time>
      </trkpt>
      <trkpt lat="48.10465" lon="7.19004">
        <ele>752</ele>
        <time>2019-04-12T19:56:56Z</time>
      </trkpt>
      <trkpt lat="48.105" lon="7.19138">
        <ele>747</ele>
        <time>2019-04-12T19:57:56Z</time>
      </trkpt>
      <trkpt lat="48.1051" lon="7.19166">
        <ele>747</ele>
        <time>2019-04-12T19:58:56Z</time>
      </trkpt>
      <trkpt lat="48.10507" lon="7.19256">
        <ele>746</ele>
        <time>2019-04-12T19:59:56Z</time>
      </trkpt>
      <trkpt lat="48.10511" lon="7.1926">
        <ele>747</ele>
        <time>2019-04-12T20:00:56Z</time>
      </trkpt>
      <trkpt lat="48.10584" lon="7.19233">
        <ele>753</ele>
        <time>2019-04-12T20:01:56Z</time>
      </trkpt>
      <trkpt lat="48.10629" lon="7.19193">
        <ele>754</ele>
        <time>2019-04-12T20:02:56Z</time>
      </trkpt>
      <trkpt lat="48.10735" lon="7.19129">
        <ele>754</ele>
        <time>2019-04-12T20:03:56Z</time>
      </trkpt>
      <trkpt lat="48.10781" lon="7.1911">
        <ele>754</ele>
        <time>2019-04-12T20:04:56Z</time>
      </trkpt>
      <trkpt lat="48.10843" lon="7.19126">
        <ele>753</ele>
        <time>2019-04-12T20:05:56Z</time>
      </trkpt>
      <trkpt lat="48.1088" lon="7.1917">
        <ele>753</ele>
        <time>2019-04-12T20:06:56Z</time>
      </trkpt>
      <trkpt lat="48.10901" lon="7.19205">
        <ele>752</ele>
        <time>2019-04-12T20:07:56Z</time>
      </trkpt>
      <trkpt lat="48.10929" lon="7.19238">
        <ele>751</ele>
        <time>2019-04-12T20:08:56Z</time>
      </trkpt>
      <trkpt lat="48.10953" lon="7.19257">
        <ele>752</ele>
        <time>2019-04-12T20:09:56Z</time>
      </trkpt>
      <trkpt lat="48.11036" lon="7.19261">
        <ele>756</ele>
        <time>2019-04-12T20:10:56Z</time>
      </trkpt>
      <trkpt lat="48.111" lon="7.19277">
        <ele>757</ele>
        <time>2019-04-12T20:11:56Z</time>
      </trkpt>
      <trkpt lat="48.11134" lon="7.19294">
        <ele>758</ele>
        <time>2019-04-12T20:12:56Z</time>
      </trkpt>
      <trkpt lat="48.1118" lon="7.19302">
        <ele>758</ele>
        <time>2019-04-12T20:13:56Z</time>
      </trkpt>
      <trkpt lat="48.11204" lon="7.19344">
        <ele>756</ele>
        <time>2019-04-12T20:14:56Z</time>
      </trkpt>
      <trkpt lat="48.11224" lon="7.19343">
        <ele>754</ele>
        <time>2019-04-12T20:15:56Z</time>
      </trkpt>
      <trkpt lat="48.11238" lon="7.19334">
        <ele>753</ele>
        <time>2019-04-12T20:16:56Z</time>
      </trkpt>
      <trkpt lat="48.11331" lon="7.19363">
        <ele>745</ele>
        <time>2019-04-12T20:17:56Z</time>
      </trkpt>
      <trkpt lat="48.11381" lon="7.19411">
        <ele>742</ele>
        <time>2019-04-12T20:18:56Z</time>
      </trkpt>
      <trkpt lat="48.11441" lon="7.1944">
        <ele>740</ele>
        <time>2019-04-12T20:19:56Z</time>
      </trkpt>
      <trkpt lat="48.1145" lon="7.19437">
        <ele>740</ele>
        <time>2019-04-12T20:20:56Z</time>
      </trkpt>
      <trkpt lat="48.11485" lon="7.19343">
        <ele>738</ele>
        <time>2019-04-12T20:21:56Z</time>
      </trkpt>
      <trkpt lat="48.11522" lon="7.19279">
        <ele>734</ele>
        <time>2019-04-12T20:22:56Z</time>
      </trkpt>
      <trkpt lat="48.11534" lon="7.1924">
        <ele>732</ele>
        <time>2019-04-12T20:23:56Z</time>
      </trkpt>
      <trkpt lat="48.11522" lon="7.19219">
        <ele>731</ele>
        <time>2019-04-12T20:24:56Z</time>
      </trkpt>
      <trkpt lat="48.11489" lon="7.19189">
        <ele>731</ele>
        <time>2019-04-12T20:25:56Z</time>
      </trkpt>
      <trkpt lat="48.11452" lon="7.19152">
        <ele>732</ele>
        <time>2019-04-12T20:26:56Z</time>
      </trkpt>
      <trkpt lat="48.11432" lon="7.19113">
        <ele>731</ele>
        <time>2019-04-12T20:27:56Z</time>
      </trkpt>
      <trkpt lat="48.1141" lon="7.1903">
        <ele>729</ele>
        <time>2019-04-12T20:28:56Z</time>
      </trkpt>
      <trkpt lat="48.11414" lon="7.18983">
        <ele>725</ele>
        <time>2019-04-12T20:29:56Z</time>
      </trkpt>
      <trkpt lat="48.11412" lon="7.18943">
        <ele>723</ele>
        <time>2019-04-12T20:30:56Z</time>
      </trkpt>
      <trkpt lat="48.11422" lon="7.18914">
        <ele>720</ele>
        <time>2019-04-12T20:31:56Z</time>
      </trkpt>
      <trkpt lat="48.11433" lon="7.18905">
        <ele>722</ele>
        <time>2019-04-12T20:32:56Z</time>
      </trkpt>
      <trkpt lat="48.11462" lon="7.18911">
        <ele>724</ele>
        <time>2019-04-12T20:33:56Z</time>
      </trkpt>
      <trkpt lat="48.11575" lon="7.19012">
        <ele>712</ele>
        <time>2019-04-12T20:34:56Z</time>
      </trkpt>
      <trkpt lat="48.11649" lon="7.19039">
        <ele>707</ele>
        <time>2019-04-12T20:35:56Z</time>
      </trkpt>
      <trkpt lat="48.11691" lon="7.19039">
        <ele>704</ele>
        <time>2019-04-12T20:36:56Z</time>
      </trkpt>
      <trkpt lat="48.11802" lon="7.18982">
        <ele>692</ele>
        <time>2019-04-12T20:37:56Z</time>
      </trkpt>
      <trkpt lat="48.11898" lon="7.1889">
        <ele>674</ele>
        <time>2019-04-12T20:38:56Z</time>
      </trkpt>
      <trkpt lat="48.1194" lon="7.18857">
        <ele>671</ele>
        <time>2019-04-12T20:39:56Z</time>
      </trkpt>
      <trkpt lat="48.11992" lon="7.18855">
        <ele>667</ele>
        <time>2019-04-12T20:40:56Z</time>
      </trkpt>
      <trkpt lat="48.12008" lon="7.18833">
        <ele>665</ele>
        <time>2019-04-12T20:41:56Z</time>
      </trkpt>
      <trkpt lat="48.12043" lon="7.18806">
        <ele>664</ele>
        <time>2019-04-12T20:42:56Z</time>
      </trkpt>
      <trkpt lat="48.12105" lon="7.18775">
        <ele>660</ele>
        <time>2019-04-12T20:43:56Z</time>
      </trkpt>
      <trkpt lat="48.12183" lon="7.18742">
        <ele>654</ele>
        <time>2019-04-12T20:44:56Z</time>
      </trkpt>
      <trkpt lat="48.12201" lon="7.18743">
        <ele>650</ele>
        <time>2019-04-12T20:45:56Z</time>
      </trkpt>
      <trkpt lat="48.12243" lon="7.1872">
        <ele>645</ele>
        <time>2019-04-12T20:46:56Z</time>
      </trkpt>
      <trkpt lat="48.12261" lon="7.18675">
        <ele>644</ele>
        <time>2019-04-12T20:47:56Z</time>
      </trkpt>
      <trkpt lat="48.12268" lon="7.18645">
        <ele>639</ele>
        <time>2019-04-12T20:48:56Z</time>
      </trkpt>
      <trkpt lat="48.12271" lon="7.18645">
        <ele>638</ele>
        <time>2019-04-12T20:49:56Z</time>
      </trkpt>
      <trkpt lat="48.12261" lon="7.18611">
        <ele>637</ele>
        <time>2019-04-12T20:50:56Z</time>
      </trkpt>
      <trkpt lat="48.1224" lon="7.18565">
        <ele>638</ele>
        <time>2019-04-12T20:51:56Z</time>
      </trkpt>
      <trkpt lat="48.12236" lon="7.18551">
        <ele>638</ele>
        <time>2019-04-12T20:52:56Z</time>
      </trkpt>
      <trkpt lat="48.12244" lon="7.18525">
        <ele>636</ele>
        <time>2019-04-12T20:53:56Z</time>
      </trkpt>
      <trkpt lat="48.12289" lon="7.18519">
        <ele>630</ele>
        <time>2019-04-12T20:54:56Z</time>
      </trkpt>
      <trkpt lat="48.1233" lon="7.1852">
        <ele>625</ele>
        <time>2019-04-12T20:55:56Z</time>
      </trkpt>
      <trkpt lat="48.12352" lon="7.18528">
        <ele>625</ele>
        <time>2019-04-12T20:56:56Z</time>
      </trkpt>
      <trkpt lat="48.12398" lon="7.18566">
        <ele>622</ele>
        <time>2019-04-12T20:57:56Z</time>
      </trkpt>
      <trkpt lat="48.12434" lon="7.18576">
        <ele>619</ele>
        <time>2019-04-12T20:58:56Z</time>
      </trkpt>
      <trkpt lat="48.12464" lon="7.18556">
        <ele>617</ele>
        <time>2019-04-12T20:59:56Z</time>
      </trkpt>
      <trkpt lat="48.12509" lon="7.18503">
        <ele>616</ele>
        <time>2019-04-12T21:00:56Z</time>
      </trkpt>
      <trkpt lat="48.12565" lon="7.18393">
        <ele>604</ele>
        <time>2019-04-12T21:01:56Z</time>
      </trkpt>
      <trkpt lat="48.12576" lon="7.18354">
        <ele>606</ele>
        <time>2019-04-12T21:02:56Z</time>
      </trkpt>
      <trkpt lat="48.12587" lon="7.18338">
        <ele>605</ele>
        <time>2019-04-12T21:03:56Z</time>
      </trkpt>
      <trkpt lat="48.12616" lon="7.18311">
        <ele>604</ele>
        <time>2019-04-12T21:04:56Z</time>
      </trkpt>
      <trkpt lat="48.12652" lon="7.18294">
        <ele>598</ele>
        <time>2019-04-12T21:05:56Z</time>
      </trkpt>
      <trkpt lat="48.12717" lon="7.18259">
        <ele>597</ele>
        <time>2019-04-12T21:06:56Z</time>
      </trkpt>
      <trkpt lat="48.12738" lon="7.18234">
        <ele>597</ele>
        <time>2019-04-12T21:07:56Z</time>
      </trkpt>
      <trkpt lat="48.12767" lon="7.18193">
        <ele>592</ele>
        <time>2019-04-12T21:08:56Z</time>
      </trkpt>
      <trkpt lat="48.12725" lon="7.18109">
        <ele>595</ele>
        <time>2019-04-12T21:09:56Z</time>
      </trkpt>
      <trkpt lat="48.12696" lon="7.18059">
        <ele>592</ele>
        <time>2019-04-12T21:10:56Z</time>
      </trkpt>
      <trkpt lat="48.12647" lon="7.1799">
        <ele>590</ele>
        <time>2019-04-12T21:11:56Z</time>
      </trkpt>
      <trkpt lat="48.12605" lon="7.17919">
        <ele>586</ele>
        <time>2019-04-12T21:12:56Z</time>
      </trkpt>
      <trkpt lat="48.12576" lon="7.17863">
        <ele>583</ele>
        <time>2019-04-12T21:13:56Z</time>
      </trkpt>
      <trkpt lat="48.12564" lon="7.17805">
        <ele>577</ele>
        <time>2019-04-12T21:14:56Z</time>
      </trkpt>
      <trkpt lat="48.12564" lon="7.17761">
        <ele>572</ele>
        <time>2019-04-12T21:15:56Z</time>
      </trkpt>
      <trkpt lat="48.12569" lon="7.17744">
        <ele>570</ele>
        <time>2019-04-12T21:16:56Z</time>
      </trkpt>
      <trkpt lat="48.12606" lon="7.17681">
        <ele>563</ele>
        <time>2019-04-12T21:17:56Z</time>
      </trkpt>
      <trkpt lat="48.12618" lon="7.17655">
        <ele>562</ele>
        <time>2019-04-12T21:18:56Z</time>
      </trkpt>
      <trkpt lat="48.12627" lon="7.17602">
        <ele>561</ele>
        <time>2019-04-12T21:19:56Z</time>
      </trkpt>
      <trkpt lat="48.1263" lon="7.17579">
        <ele>561</ele>
        <time>2019-04-12T21:20:56Z</time>
      </trkpt>
      <trkpt lat="48.12653" lon="7.17517">
        <ele>554</ele>
        <time>2019-04-12T21:21:56Z</time>
      </trkpt>
      <trkpt lat="48.12656" lon="7.1749">
        <ele>551</ele>
        <time>2019-04-12T21:22:56Z</time>
      </trkpt>
      <trkpt lat="48.12661" lon="7.17487">
        <ele>551</ele>
        <time>2019-04-12T21:23:56Z</time>
      </trkpt>
      <trkpt lat="48.12659" lon="7.17436">
        <ele>546</ele>
        <time>2019-04-12T21:24:56Z</time>
      </trkpt>
      <trkpt lat="48.12661" lon="7.17437">
        <ele>546</ele>
        <time>2019-04-12T21:25:56Z</time>
      </trkpt>
      <trkpt lat="48.12669" lon="7.17407">
        <ele>543</ele>
        <time>2019-04-12T21:26:56Z</time>
      </trkpt>
      <trkpt lat="48.12729" lon="7.17362">
        <ele>534</ele>
        <time>2019-04-12T21:27:56Z</time>
      </trkpt>
      <trkpt lat="48.12739" lon="7.17336">
        <ele>530</ele>
        <time>2019-04-12T21:28:56Z</time>
      </trkpt>
      <trkpt lat="48.12737" lon="7.17276">
        <ele>524</ele>
        <time>2019-04-12T21:29:56Z</time>
      </trkpt>
      <trkpt lat="48.12743" lon="7.17242">
        <ele>520</ele>
        <time>2019-04-12T21:30:56Z</time>
      </trkpt>
      <trkpt lat="48.12763" lon="7.17194">
        <ele>512</ele>
        <time>2019-04-12T21:31:56Z</time>
      </trkpt>
      <trkpt lat="48.12777" lon="7.17141">
        <ele>503</ele>
        <time>2019-04-12T21:32:56Z</time>
      </trkpt>
      <trkpt lat="48.12758" lon="7.17102">
        <ele>500</ele>
        <time>2019-04-12T21:33:56Z</time>
      </trkpt>
      <trkpt lat="48.12683" lon="7.17018">
        <ele>492</ele>
        <time>2019-04-12T21:34:56Z</time>
      </trkpt>
      <trkpt lat="48.12677" lon="7.16984">
        <ele>485</ele>
        <time>2019-04-12T21:35:56Z</time>
      </trkpt>
      <trkpt lat="48.1265" lon="7.16931">
        <ele>479</ele>
        <time>2019-04-12T21:36:56Z</time>
      </trkpt>
      <trkpt lat="48.12632" lon="7.16886">
        <ele>478</ele>
        <time>2019-04-12T21:37:56Z</time>
      </trkpt>
      <trkpt lat="48.1263" lon="7.16862">
        <ele>476</ele>
        <time>2019-04-12T21:38:56Z</time>
      </trkpt>
      <trkpt lat="48.12659" lon="7.1678">
        <ele>465</ele>
        <time>2019-04-12T21:39:56Z</time>
      </trkpt>
      <trkpt lat="48.1266" lon="7.16737">
        <ele>465</ele>
        <time>2019-04-12T21:40:56Z</time>
      </trkpt>
      <trkpt lat="48.1266" lon="7.16646">
        <ele>468</ele>
        <time>2019-04-12T21:41:56Z</time>
      </trkpt>
      <trkpt lat="48.12654" lon="7.16565">
        <ele>468</ele>
        <time>2019-04-12T21:42:56Z</time>
      </trkpt>
      <trkpt lat="48.12626" lon="7.16532">
        <ele>470</ele>
        <time>2019-04-12T21:43:56Z</time>
      </trkpt>
      <trkpt lat="48.1261" lon="7.16493">
        <ele>471</ele>
        <time>2019-04-12T21:44:56Z</time>
      </trkpt>
    </trkseg>
  </trk>
</gpx>